Time;durP1;ratioP1;P1;durP2;ratioP2;P2;SDS_P1;SDS_P2;PMS_P1;PMS_P2;Temp;Humidity;BMP_temperature;BMP_pressure;BME280_temperature;BME280_humidity;BME280_pressure;Samples;Min_cycle;Max_cycle;Signal;HPM_P1;HPM_P2
2023/06/11 00:01:17;;;;;;;6.22;3.45;;;17.90;99.90;;;;;;5049847;28;20489;-86
2023/06/11 00:03:46;;;;;;;6.28;3.20;;;17.90;99.90;;;;;;5064371;28;20105;-86
2023/06/11 00:06:17;;;;;;;6.53;3.35;;;18.00;99.90;;;;;;5067232;28;20048;-86
2023/06/11 00:08:51;;;;;;;9.75;3.85;;;18.10;99.90;;;;;;5066538;28;20052;-87
2023/06/11 00:11:17;;;;;;;7.88;3.15;;;18.10;99.90;;;;;;5065821;28;20095;-86
2023/06/11 00:13:43;;;;;;;7.18;3.05;;;18.20;99.90;;;;;;5032437;28;20048;-86
2023/06/11 00:16:11;;;;;;;6.63;3.03;;;18.20;99.90;;;;;;5048421;28;20404;-86
2023/06/11 00:18:41;;;;;;;5.93;2.80;;;18.20;99.90;;;;;;5067087;28;20444;-86
2023/06/11 00:21:08;;;;;;;6.25;3.25;;;18.20;99.90;;;;;;5065606;28;20051;-86
2023/06/11 00:23:36;;;;;;;6.10;3.60;;;18.10;99.90;;;;;;5067635;28;20509;-86
2023/06/11 00:26:04;;;;;;;7.75;3.25;;;18.20;99.90;;;;;;5065200;28;20051;-86
2023/06/11 00:28:30;;;;;;;6.80;2.90;;;18.20;99.90;;;;;;5049023;28;20055;-86
2023/06/11 00:30:56;;;;;;;4.00;2.75;;;18.20;99.90;;;;;;5048548;28;20367;-87
2023/06/11 00:33:21;;;;;;;4.25;2.90;;;18.20;99.90;;;;;;5030543;28;20094;-85
2023/06/11 00:35:47;;;;;;;6.97;4.25;;;18.10;99.90;;;;;;5049075;28;20072;-87
2023/06/11 00:38:13;;;;;;;7.93;3.42;;;18.10;99.90;;;;;;5064085;28;20041;-86
2023/06/11 00:40:39;;;;;;;7.72;3.08;;;18.10;99.90;;;;;;5033760;28;20040;-85
2023/06/11 00:43:07;;;;;;;7.38;3.30;;;18.00;99.90;;;;;;5047782;28;20128;-85
2023/06/11 00:45:34;;;;;;;9.65;3.78;;;18.00;99.90;;;;;;5049374;28;20106;-86
2023/06/11 00:48:01;;;;;;;5.70;3.03;;;18.00;99.90;;;;;;5031800;28;20044;-85
2023/06/11 00:50:28;;;;;;;5.53;3.05;;;18.00;99.90;;;;;;5031693;28;20110;-85
2023/06/11 00:52:54;;;;;;;7.70;3.58;;;17.30;99.90;;;;;;5065629;28;20044;-85
2023/06/11 00:55:20;;;;;;;7.03;3.67;;;17.90;99.90;;;;;;5063403;28;20105;-86
2023/06/11 00:57:47;;;;;;;8.32;3.45;;;17.90;99.90;;;;;;5066269;28;20492;-86
2023/06/11 01:00:14;;;;;;;5.50;3.53;;;17.80;99.90;;;;;;5047763;28;20566;-86
2023/06/11 01:02:50;;;;;;;7.00;3.42;;;17.80;99.90;;;;;;5066387;28;20542;-86
2023/06/11 01:05:17;;;;;;;6.07;3.63;;;17.80;99.90;;;;;;5048623;28;20075;-85
2023/06/11 01:07:50;;;;;;;9.85;4.18;;;17.70;99.90;;;;;;5048561;28;20068;-86
2023/06/11 01:10:18;;;;;;;8.45;3.83;;;17.70;99.90;;;;;;5066086;28;20109;-86
2023/06/11 01:12:44;;;;;;;9.73;4.00;;;17.70;99.90;;;;;;5063892;28;20084;-86
2023/06/11 01:15:13;;;;;;;7.05;3.88;;;17.60;99.90;;;;;;5049837;28;20143;-86
2023/06/11 01:18:00;;;;;;;9.20;4.38;;;17.00;99.90;;;;;;5068253;28;20099;-86
2023/06/11 01:20:35;;;;;;;5.75;3.33;;;17.60;99.90;;;;;;5067180;28;20101;-86
2023/06/11 01:23:06;;;;;;;6.70;4.07;;;17.50;99.90;;;;;;5059854;28;20048;-86
2023/06/11 01:25:52;;;;;;;7.80;4.17;;;17.50;99.90;;;;;;5058526;28;20050;-85
2023/06/11 01:28:24;;;;;;;7.40;3.85;;;17.50;99.90;;;;;;5074321;28;20068;-86
2023/06/11 01:30:51;;;;;;;6.97;4.07;;;17.40;99.90;;;;;;5051390;28;20025;-87
2023/06/11 01:33:19;;;;;;;7.03;3.75;;;17.40;99.90;;;;;;5051528;28;20063;-87
2023/06/11 01:35:48;;;;;;;8.07;3.55;;;17.40;99.90;;;;;;5071074;28;20036;-87
2023/06/11 01:38:15;;;;;;;5.43;4.20;;;17.40;99.90;;;;;;5054559;28;20049;-86
2023/06/11 01:40:40;;;;;;;6.03;4.22;;;17.30;99.90;;;;;;5059009;28;20094;-86
2023/06/11 01:43:06;;;;;;;8.70;4.63;;;17.30;99.90;;;;;;5066361;28;20800;-86
2023/06/11 01:45:33;;;;;;;7.28;4.28;;;17.30;99.90;;;;;;5066822;28;20131;-85
2023/06/11 01:48:00;;;;;;;8.68;4.32;;;17.20;99.90;;;;;;5048626;28;20131;-86
2023/06/11 01:50:25;;;;;;;7.35;3.95;;;17.20;99.90;;;;;;5065695;28;20071;-85
2023/06/11 01:52:51;;;;;;;8.60;4.57;;;17.20;99.90;;;;;;5065979;28;20041;-85
2023/06/11 01:55:17;;;;;;;8.40;4.93;;;17.20;99.90;;;;;;5063899;28;20153;-85
2023/06/11 01:57:43;;;;;;;11.75;4.65;;;17.10;99.90;;;;;;5065466;28;20052;-85
2023/06/11 02:00:10;;;;;;;7.32;4.10;;;17.10;99.90;;;;;;5062340;28;20401;-86
2023/06/11 02:02:40;;;;;;;6.40;4.25;;;17.10;99.90;;;;;;5063963;28;20052;-86
2023/06/11 02:05:06;;;;;;;6.40;4.18;;;17.10;99.90;;;;;;5046554;28;20052;-86
2023/06/11 02:07:32;;;;;;;7.28;4.57;;;17.10;99.90;;;;;;5063243;28;20562;-86
2023/06/11 02:09:58;;;;;;;7.20;5.10;;;17.10;99.90;;;;;;5063466;28;20480;-85
2023/06/11 02:12:24;;;;;;;9.70;5.88;;;16.80;99.90;;;;;;5030041;28;20072;-85
2023/06/11 02:14:49;;;;;;;9.43;5.05;;;17.10;99.90;;;;;;5048670;28;20476;-85
2023/06/11 02:17:15;;;;;;;8.90;4.65;;;17.10;99.90;;;;;;5062052;28;20044;-86
2023/06/11 02:19:41;;;;;;;7.68;5.15;;;17.10;99.90;;;;;;5064508;28;20040;-86
2023/06/11 02:22:06;;;;;;;6.40;4.80;;;17.00;99.90;;;;;;5046252;28;20414;-86
2023/06/11 02:24:32;;;;;;;5.82;4.63;;;17.00;99.90;;;;;;5064219;28;20044;-85
2023/06/11 02:26:58;;;;;;;7.70;4.55;;;16.90;99.90;;;;;;5063491;28;20052;-86
2023/06/11 02:29:23;;;;;;;9.23;5.32;;;17.90;99.90;;;;;;5062262;28;20388;-87
2023/06/11 02:31:49;;;;;;;9.68;4.55;;;17.00;99.90;;;;;;5047406;28;20044;-86
2023/06/11 02:34:15;;;;;;;9.48;5.13;;;16.90;99.90;;;;;;5063218;28;20052;-85
2023/06/11 02:36:41;;;;;;;9.85;4.90;;;16.90;99.90;;;;;;5047816;28;20037;-86
2023/06/11 02:39:07;;;;;;;5.78;4.45;;;16.90;99.90;;;;;;5046267;28;20055;-86
2023/06/11 02:41:33;;;;;;;6.57;5.13;;;16.80;99.90;;;;;;5062990;28;20431;-86
2023/06/11 02:43:59;;;;;;;5.78;5.20;;;16.80;99.90;;;;;;5080112;28;20139;-86
2023/06/11 02:46:25;;;;;;;8.20;4.85;;;16.80;99.90;;;;;;5062560;28;20500;-87
2023/06/11 02:48:51;;;;;;;8.38;5.68;;;17.80;99.90;;;;;;5064073;28;20047;-87
2023/06/11 02:51:17;;;;;;;8.13;5.40;;;16.70;99.90;;;;;;5045417;28;20508;-87
2023/06/11 02:53:43;;;;;;;6.43;5.18;;;16.70;99.90;;;;;;5047264;28;20040;-86
2023/06/11 02:56:09;;;;;;;5.72;4.95;;;16.70;99.90;;;;;;5044475;28;20056;-87
2023/06/11 02:58:35;;;;;;;9.50;5.25;;;16.70;99.90;;;;;;5046403;28;20052;-87
2023/06/11 03:01:01;;;;;;;7.32;4.55;;;16.60;99.90;;;;;;5046093;28;20366;-86
2023/06/11 03:03:27;;;;;;;8.20;5.20;;;16.60;99.90;;;;;;5046233;28;20131;-87
2023/06/11 03:05:52;;;;;;;8.30;5.88;;;16.60;99.90;;;;;;5046689;28;20514;-86
2023/06/11 03:08:18;;;;;;;7.03;5.00;;;16.60;99.90;;;;;;5045391;28;20055;-86
2023/06/11 03:10:44;;;;;;;8.23;4.90;;;16.60;99.90;;;;;;5047190;28;20382;-86
2023/06/11 03:13:09;;;;;;;6.60;5.25;;;16.60;99.90;;;;;;5061241;28;20041;-87
2023/06/11 03:15:35;;;;;;;7.40;5.03;;;16.60;99.90;;;;;;5046633;28;20044;-86
2023/06/11 03:18:03;;;;;;;7.40;6.07;;;16.60;99.90;;;;;;5028712;28;20036;-86
2023/06/11 03:20:28;;;;;;;10.07;5.43;;;16.60;99.90;;;;;;5045810;28;20044;-87
2023/06/11 03:22:54;;;;;;;13.90;5.28;;;16.60;99.90;;;;;;5045744;28;20051;-86
2023/06/11 03:25:20;;;;;;;10.75;5.15;;;16.60;99.90;;;;;;5045032;28;20084;-86
2023/06/11 03:27:46;;;;;;;6.75;5.22;;;16.60;99.90;;;;;;5064968;28;20076;-86
2023/06/11 03:30:11;;;;;;;10.45;5.47;;;16.60;99.90;;;;;;5061127;28;20052;-85
2023/06/11 03:32:38;;;;;;;7.72;5.50;;;16.60;99.90;;;;;;5046681;28;20052;-86
2023/06/11 03:35:04;;;;;;;11.35;6.78;;;16.60;99.90;;;;;;5061699;28;20078;-86
2023/06/11 03:37:30;;;;;;;13.38;5.85;;;16.60;99.90;;;;;;5046476;28;20048;-85
2023/06/11 03:39:56;;;;;;;9.52;6.18;;;16.60;99.90;;;;;;5049305;28;20524;-85
2023/06/11 03:42:22;;;;;;;7.55;5.97;;;16.60;99.90;;;;;;5067901;28;20101;-85
2023/06/11 03:44:49;;;;;;;7.35;5.47;;;15.90;99.90;;;;;;5068813;28;20604;-85
2023/06/11 03:47:15;;;;;;;8.45;5.95;;;16.60;99.90;;;;;;5048681;28;20505;-85
2023/06/11 03:49:41;;;;;;;7.80;5.82;;;16.60;99.90;;;;;;5067810;28;20067;-87
2023/06/11 03:52:07;;;;;;;8.45;5.32;;;15.40;99.90;;;;;;5066089;28;20047;-87
2023/06/11 03:54:33;;;;;;;6.05;5.45;;;17.60;99.90;;;;;;5066898;28;20049;-88
2023/06/11 03:56:59;;;;;;;7.70;6.05;;;16.70;99.90;;;;;;5061633;28;20095;-86
2023/06/11 03:59:25;;;;;;;8.23;5.68;;;15.20;99.90;;;;;;5045312;28;20044;-85
2023/06/11 04:01:50;;;;;;;9.63;5.68;;;16.70;99.90;;;;;;5046022;28;20055;-86
2023/06/11 04:04:16;;;;;;;10.73;5.82;;;16.80;99.90;;;;;;5061100;28;20045;-86
2023/06/11 04:06:42;;;;;;;8.43;6.20;;;16.80;99.90;;;;;;5029925;28;20048;-87
2023/06/11 04:09:08;;;;;;;9.05;5.75;;;16.80;99.90;;;;;;5045418;28;20059;-87
2023/06/11 04:11:33;;;;;;;8.45;6.10;;;16.90;99.90;;;;;;5066135;28;20097;-86
2023/06/11 04:13:59;;;;;;;6.95;6.05;;;16.90;99.90;;;;;;5048511;28;20084;-85
2023/06/11 04:16:25;;;;;;;9.13;6.22;;;17.00;99.90;;;;;;5065525;28;20126;-86
2023/06/11 04:18:52;;;;;;;7.78;5.57;;;17.00;99.90;;;;;;5049176;28;20058;-87
2023/06/11 04:21:18;;;;;;;7.15;5.63;;;17.00;99.90;;;;;;5064889;28;20048;-87
2023/06/11 04:23:44;;;;;;;8.30;5.82;;;17.10;99.90;;;;;;5067936;28;20075;-86
2023/06/11 04:26:10;;;;;;;7.68;5.55;;;17.20;99.90;;;;;;5047556;28;20084;-86
2023/06/11 04:28:40;;;;;;;9.27;5.78;;;17.20;99.90;;;;;;5049692;28;20051;-86
2023/06/11 04:31:07;;;;;;;7.50;5.72;;;17.20;99.90;;;;;;5065116;28;20128;-87
2023/06/11 04:33:33;;;;;;;11.15;6.13;;;17.00;99.90;;;;;;5032094;28;20170;-86
2023/06/11 04:36:10;;;;;;;8.60;5.75;;;17.40;99.90;;;;;;5065448;28;20138;-86
2023/06/11 04:38:37;;;;;;;8.75;5.10;;;17.40;99.90;;;;;;5064239;28;20048;-86
2023/06/11 04:41:08;;;;;;;9.18;5.60;;;17.50;99.90;;;;;;5032621;28;20090;-86
2023/06/11 04:43:34;;;;;;;6.47;5.70;;;17.50;99.90;;;;;;5047830;28;20175;-86
2023/06/11 04:46:00;;;;;;;12.18;5.57;;;17.60;99.90;;;;;;5065345;28;20578;-86
2023/06/11 04:48:28;;;;;;;8.02;5.32;;;17.60;99.90;;;;;;5064413;28;20040;-86
2023/06/11 04:50:54;;;;;;;10.88;5.30;;;17.60;99.90;;;;;;5064765;28;20568;-87
2023/06/11 04:53:30;;;;;;;10.00;5.40;;;17.70;99.90;;;;;;5048337;28;20199;-86
2023/06/11 04:55:57;;;;;;;6.40;5.25;;;17.80;99.90;;;;;;5047007;28;20056;-86
2023/06/11 04:58:24;;;;;;;9.90;5.47;;;19.30;99.90;;;;;;5049127;28;20636;-85
2023/06/11 05:00:56;;;;;;;10.43;5.88;;;17.80;99.90;;;;;;5063748;28;20053;-86
2023/06/11 05:03:24;;;;;;;;;;;17.20;99.90;;;;;;5049501;28;20150;-84
2023/06/11 05:05:51;;;;;;;11.30;5.53;;;18.00;99.90;;;;;;5081620;28;20341;-85
2023/06/11 05:08:35;;;;;;;10.38;5.38;;;18.00;99.90;;;;;;5064384;28;20037;-85
2023/06/11 05:11:00;;;;;;;11.93;5.63;;;18.10;99.90;;;;;;5065191;28;20489;-86
2023/06/11 05:13:27;;;;;;;6.45;5.53;;;18.10;99.90;;;;;;5063457;28;20059;-85
2023/06/11 05:15:54;;;;;;;5.10;4.60;;;18.20;99.90;;;;;;5048346;28;20041;-85
2023/06/11 05:18:20;;;;;;;10.15;5.90;;;18.30;99.90;;;;;;5065313;28;20040;-85
2023/06/11 05:20:48;;;;;;;9.55;5.72;;;17.00;99.90;;;;;;5047201;28;20045;-85
2023/06/11 05:23:18;;;;;;;10.88;5.47;;;18.40;99.90;;;;;;5064482;28;20040;-86
2023/06/11 05:25:46;;;;;;;9.75;5.45;;;18.40;99.90;;;;;;5047100;28;20059;-85
2023/06/11 05:28:13;;;;;;;12.30;5.57;;;18.50;99.90;;;;;;5065098;28;20044;-85
2023/06/11 05:30:43;;;;;;;5.80;4.82;;;18.60;99.90;;;;;;5079532;28;20626;-85
2023/06/11 05:33:10;;;;;;;7.50;5.47;;;18.60;99.90;;;;;;5031884;28;20076;-86
2023/06/11 05:35:37;;;;;;;8.85;6.35;;;18.70;99.90;;;;;;5064974;28;20525;-85
2023/06/11 05:38:06;;;;;;;10.68;5.55;;;18.80;99.90;;;;;;5063975;28;20045;-85
2023/06/11 05:40:36;;;;;;;8.80;5.65;;;18.80;99.90;;;;;;5064395;28;20051;-85
2023/06/11 05:43:02;;;;;;;8.98;5.85;;;18.90;99.90;;;;;;5065044;28;20076;-87
2023/06/11 05:45:31;;;;;;;12.43;5.68;;;19.00;99.90;;;;;;5031582;28;20071;-87
2023/06/11 05:47:57;;;;;;;6.68;5.25;;;19.00;99.90;;;;;;5063194;28;20048;-85
2023/06/11 05:50:22;;;;;;;10.38;5.40;;;19.10;99.90;;;;;;5031086;28;20052;-85
2023/06/11 05:52:48;;;;;;;7.18;5.15;;;19.20;99.90;;;;;;5063431;28;20055;-87
2023/06/11 05:55:14;;;;;;;9.77;5.13;;;19.30;99.90;;;;;;5046621;28;20053;-86
2023/06/11 05:57:40;;;;;;;6.43;5.40;;;19.40;99.90;;;;;;5063472;28;20051;-86
2023/06/11 06:00:07;;;;;;;6.03;5.43;;;19.50;99.90;;;;;;5062576;28;20037;-86
2023/06/11 06:02:33;;;;;;;8.38;5.25;;;19.50;99.90;;;;;;5065531;28;20135;-86
2023/06/11 06:04:59;;;;;;;9.20;5.40;;;19.60;99.90;;;;;;5046305;28;20132;-87
2023/06/11 06:07:27;;;;;;;7.15;5.53;;;19.70;99.90;;;;;;5063747;28;20051;-86
2023/06/11 06:09:53;;;;;;;9.98;6.00;;;19.80;99.90;;;;;;5062487;28;20047;-86
2023/06/11 06:12:19;;;;;;;8.27;4.65;;;19.90;99.90;;;;;;5030326;28;20041;-87
2023/06/11 06:14:45;;;;;;;11.50;5.20;;;20.00;99.90;;;;;;5062887;28;20052;-85
2023/06/11 06:17:10;;;;;;;9.05;5.25;;;20.10;99.90;;;;;;5062569;28;20098;-85
2023/06/11 06:19:36;;;;;;;11.55;5.55;;;20.20;99.90;;;;;;5047272;28;20044;-86
2023/06/11 06:22:02;;;;;;;9.05;5.07;;;20.30;99.90;;;;;;5062637;28;20076;-88
2023/06/11 06:24:27;;;;;;;5.43;4.80;;;20.40;99.90;;;;;;5031062;28;20052;-86
2023/06/11 06:26:56;;;;;;;8.63;5.07;;;20.50;99.90;;;;;;5063407;28;20048;-90
2023/06/11 06:29:25;;;;;;;5.97;4.57;;;20.60;99.90;;;;;;5048062;28;20041;-87
2023/06/11 06:31:52;;;;;;;8.45;4.00;;;20.70;99.90;;;;;;5062787;28;20053;-89
2023/06/11 06:34:18;;;;;;;8.27;4.40;;;20.80;99.90;;;;;;5063682;28;20522;-88
2023/06/11 06:36:44;;;;;;;10.32;5.20;;;20.90;99.90;;;;;;5033306;28;20041;-88
2023/06/11 06:39:09;;;;;;;7.95;4.93;;;21.00;99.90;;;;;;5046251;28;20439;-93
2023/06/11 06:41:35;;;;;;;7.00;5.28;;;21.10;99.90;;;;;;5031869;28;20041;-89
2023/06/11 06:44:01;;;;;;;6.57;5.57;;;21.10;99.90;;;;;;5029769;28;20056;-91
2023/06/11 06:46:26;;;;;;;6.68;4.97;;;21.30;99.90;;;;;;5031235;28;20443;-90
2023/06/11 06:48:58;;;;;;;6.97;4.75;;;21.30;99.90;;;;;;5046809;28;20040;-96
2023/06/11 06:51:24;;;;;;;5.25;4.38;;;21.50;99.90;;;;;;5065087;28;20485;-88
2023/06/11 06:53:50;;;;;;;5.82;4.90;;;21.50;99.90;;;;;;5052747;28;20045;-92
2023/06/11 06:56:17;;;;;;;7.32;4.72;;;21.70;99.90;;;;;;5048950;28;20048;-91
2023/06/11 06:58:44;;;;;;;6.38;4.75;;;21.80;99.90;;;;;;5034328;28;20105;-92
2023/06/11 07:01:10;;;;;;;6.47;5.05;;;21.90;99.90;;;;;;5035002;28;20036;-90
2023/06/11 07:03:36;;;;;;;5.93;4.55;;;21.90;99.90;;;;;;5049862;28;20602;-90
2023/06/11 07:06:02;;;;;;;9.50;4.30;;;22.00;99.90;;;;;;5068336;28;20077;-93
2023/06/11 07:08:28;;;;;;;8.75;5.07;;;22.10;99.90;;;;;;5051584;28;20490;-90
2023/06/11 07:10:55;;;;;;;11.05;8.88;;;22.20;99.90;;;;;;5033785;28;20037;-89
2023/06/11 07:13:22;;;;;;;5.10;4.57;;;22.20;99.90;;;;;;5074977;28;20044;-93
2023/06/11 07:15:49;;;;;;;9.85;4.80;;;22.30;99.90;;;;;;5045471;28;20036;-92
2023/06/11 07:18:15;;;;;;;6.93;4.70;;;22.40;99.90;;;;;;5048673;28;20080;-92
2023/06/11 07:20:41;;;;;;;5.70;4.70;;;22.60;99.90;;;;;;5064494;28;20044;-92
2023/06/11 07:23:07;;;;;;;7.10;4.50;;;22.60;99.90;;;;;;5063518;28;20055;-90
2023/06/11 07:25:33;;;;;;;7.88;4.35;;;22.80;99.90;;;;;;5090018;28;20037;-89
2023/06/11 07:28:01;;;;;;;6.80;4.07;;;23.00;99.90;;;;;;5043159;28;20090;-91
2023/06/11 07:30:28;;;;;;;19.60;4.68;;;23.00;99.90;;;;;;5049239;28;20036;-93
2023/06/11 07:32:53;;;;;;;14.63;11.32;;;23.10;99.90;;;;;;5062400;28;20432;-91
2023/06/11 07:35:20;;;;;;;18.27;13.30;;;23.20;99.90;;;;;;5052779;28;20343;-88
2023/06/11 07:37:47;;;;;;;9.02;5.50;;;23.30;99.90;;;;;;5038579;28;20040;-89
2023/06/11 07:40:13;;;;;;;7.10;4.50;;;23.40;99.90;;;;;;5049707;28;20113;-87
2023/06/11 07:42:39;;;;;;;7.32;4.97;;;23.50;99.90;;;;;;5050233;28;20134;-90
2023/06/11 07:45:08;;;;;;;9.57;5.32;;;23.50;99.90;;;;;;5052054;28;20079;-89
2023/06/11 07:47:35;;;;;;;8.00;4.65;;;23.50;99.90;;;;;;5033615;28;20109;-88
2023/06/11 07:50:02;;;;;;;7.43;4.45;;;23.50;99.90;;;;;;5033511;28;20770;-89
2023/06/11 07:52:28;;;;;;;10.40;4.93;;;23.60;99.90;;;;;;5048954;28;20051;-89
2023/06/11 07:54:53;;;;;;;13.13;5.18;;;23.70;99.90;;;;;;5034178;28;20044;-89
2023/06/11 07:57:19;;;;;;;6.43;4.82;;;23.90;99.90;;;;;;5051131;28;20061;-90
2023/06/11 07:59:45;;;;;;;6.75;4.88;;;24.00;99.90;;;;;;5033717;28;20076;-89
2023/06/11 08:02:11;;;;;;;5.60;4.80;;;24.00;99.90;;;;;;5032934;28;20357;-90
2023/06/11 08:04:38;;;;;;;6.05;5.03;;;24.10;99.90;;;;;;5049677;28;20094;-87
2023/06/11 08:07:04;;;;;;;4.47;4.05;;;24.20;99.90;;;;;;5050702;28;20036;-89
2023/06/11 08:09:32;;;;;;;7.00;4.78;;;24.00;99.90;;;;;;5049044;28;20040;-91
2023/06/11 08:11:58;;;;;;;10.65;8.35;;;24.40;99.90;;;;;;5037350;28;20052;-89
2023/06/11 08:14:24;;;;;;;7.03;5.25;;;24.50;99.90;;;;;;5033997;28;20653;-90
2023/06/11 08:16:50;;;;;;;5.60;4.75;;;24.50;99.90;;;;;;5037441;28;20047;-89
2023/06/11 08:19:15;;;;;;;8.32;5.22;;;24.50;99.90;;;;;;5049331;28;20052;-89
2023/06/11 08:21:41;;;;;;;6.13;4.55;;;24.60;99.90;;;;;;5048891;28;20052;-88
2023/06/11 08:24:08;;;;;;;5.70;5.00;;;24.80;99.90;;;;;;5049545;28;20045;-88
2023/06/11 08:26:34;;;;;;;6.20;4.95;;;24.90;99.90;;;;;;5065137;28;20041;-89
2023/06/11 08:29:00;;;;;;;6.47;4.38;;;25.00;99.90;;;;;;5033258;28;20036;-86
2023/06/11 08:31:26;;;;;;;10.25;4.50;;;25.10;99.90;;;;;;5064600;28;20496;-87
2023/06/11 08:33:52;;;;;;;6.10;4.53;;;25.30;99.90;;;;;;5049367;28;20116;-90
2023/06/11 08:36:18;;;;;;;6.97;4.38;;;25.40;99.90;;;;;;5065255;28;20072;-87
2023/06/11 08:38:45;;;;;;;5.53;4.30;;;25.50;99.90;;;;;;5065020;28;20493;-87
2023/06/11 08:41:11;;;;;;;5.55;4.30;;;25.50;99.90;;;;;;5048366;28;20049;-85
2023/06/11 08:43:38;;;;;;;7.85;4.80;;;25.60;99.90;;;;;;5031587;28;20049;-86
2023/06/11 08:46:05;;;;;;;6.03;4.70;;;25.50;99.80;;;;;;5066913;28;20049;-85
2023/06/11 08:48:38;;;;;;;5.75;4.60;;;25.60;99.70;;;;;;5065215;28;20087;-84
2023/06/11 08:51:06;;;;;;;9.95;4.00;;;25.70;99.60;;;;;;5050230;28;20044;-85
2023/06/11 08:53:33;;;;;;;5.63;4.65;;;25.80;99.50;;;;;;5066516;28;20040;-86
2023/06/11 08:55:59;;;;;;;6.13;4.75;;;25.90;99.20;;;;;;5047465;28;20044;-87
2023/06/11 08:58:26;;;;;;;7.07;4.68;;;26.00;99.30;;;;;;5050599;28;20048;-87
2023/06/11 09:00:52;;;;;;;6.70;4.47;;;26.10;98.90;;;;;;5066566;28;20052;-86
2023/06/11 09:03:18;;;;;;;7.75;5.53;;;26.10;98.80;;;;;;5032777;28;20040;-84
2023/06/11 09:05:46;;;;;;;5.50;4.45;;;26.20;98.60;;;;;;5048073;28;20056;-87
2023/06/11 09:08:11;;;;;;;9.07;4.80;;;26.30;98.40;;;;;;5048954;28;20078;-86
2023/06/11 09:10:51;;;;;;;6.45;4.07;;;26.30;98.30;;;;;;5047585;28;20052;-86
2023/06/11 09:13:18;;;;;;;5.55;3.90;;;26.50;97.90;;;;;;5032839;28;20789;-86
2023/06/11 09:15:49;;;;;;;5.72;4.22;;;26.20;98.10;;;;;;5048790;28;20512;-85
2023/06/11 09:18:22;;;;;;;6.32;4.13;;;26.60;98.00;;;;;;5048253;28;20048;-89
2023/06/11 09:20:57;;;;;;;7.38;4.85;;;26.90;97.50;;;;;;5065309;28;20053;-89
2023/06/11 09:23:26;;;;;;;5.05;4.53;;;27.00;97.00;;;;;;5053200;28;20044;-88
2023/06/11 09:25:52;;;;;;;7.20;4.63;;;25.80;96.40;;;;;;5066242;28;20045;-87
2023/06/11 09:28:18;;;;;;;7.20;4.50;;;27.10;97.00;;;;;;5031445;28;20136;-90
2023/06/11 09:30:56;;;;;;;8.88;4.50;;;27.20;96.80;;;;;;5049418;28;20044;-87
2023/06/11 09:33:22;;;;;;;6.97;4.32;;;27.40;96.50;;;;;;5050457;28;20044;-89
2023/06/11 09:35:48;;;;;;;6.93;3.92;;;27.50;96.70;;;;;;5064563;28;20057;-88
2023/06/11 09:38:15;;;;;;;4.32;3.92;;;27.60;96.10;;;;;;5066147;28;20044;-89
2023/06/11 09:40:52;;;;;;;7.70;3.63;;;27.70;96.20;;;;;;5065181;28;20090;-92
2023/06/11 09:43:22;;;;;;;5.05;4.47;;;27.80;95.30;;;;;;5065849;28;20501;-89
2023/06/11 09:45:54;;;;;;;4.18;3.55;;;27.90;95.40;;;;;;5064641;28;20044;-90
2023/06/11 09:48:22;;;;;;;7.43;4.10;;;28.00;95.50;;;;;;5045449;28;20098;-89
2023/06/11 09:50:50;;;;;;;5.03;4.00;;;28.10;95.50;;;;;;5031906;28;20045;-86
2023/06/11 09:53:17;;;;;;;6.18;4.25;;;28.20;95.00;;;;;;5064453;28;20547;-89
2023/06/11 09:55:45;;;;;;;8.15;4.07;;;28.30;94.60;;;;;;5064955;28;20094;-88
2023/06/11 09:58:12;;;;;;;9.00;4.22;;;28.40;94.40;;;;;;5065313;28;20044;-87
2023/06/11 10:00:38;;;;;;;9.73;3.90;;;28.40;94.00;;;;;;5065184;28;20048;-84
2023/06/11 10:03:04;;;;;;;5.38;3.72;;;28.40;93.60;;;;;;5047653;28;20121;-90
2023/06/11 10:05:34;;;;;;;5.60;4.10;;;28.60;93.50;;;;;;5048170;28;20103;-85
2023/06/11 10:08:02;;;;;;;11.30;4.38;;;28.70;93.10;;;;;;5049505;28;20089;-91
2023/06/11 10:10:33;;;;;;;6.05;3.83;;;28.80;92.90;;;;;;5049544;28;20121;-88
2023/06/11 10:13:00;;;;;;;6.10;3.90;;;28.80;92.80;;;;;;5055914;28;20037;-90
2023/06/11 10:15:26;;;;;;;4.78;3.50;;;28.90;92.90;;;;;;5053450;28;20096;-91
2023/06/11 10:17:54;;;;;;;6.53;3.50;;;29.00;92.60;;;;;;5041345;28;20044;-93
2023/06/11 10:20:44;;;;;;;4.10;3.70;;;29.10;92.00;;;;;;5041054;28;20032;-94
2023/06/11 10:23:11;;;;;;;6.32;3.65;;;29.10;91.20;;;;;;5062039;28;20064;-93
2023/06/11 10:25:40;;;;;;;6.75;3.92;;;29.20;91.20;;;;;;5060645;28;20045;-96
2023/06/11 10:28:07;;;;;;;4.97;3.55;;;29.30;91.00;;;;;;5062856;28;20037;-95
2023/06/11 10:30:33;;;;;;;5.10;3.05;;;29.40;90.80;;;;;;5045546;28;20036;-93
2023/06/11 10:33:00;;;;;;;4.70;3.13;;;29.40;90.10;;;;;;5040524;28;20052;-95
2023/06/11 10:35:32;;;;;;;5.15;3.85;;;28.40;88.80;;;;;;5057922;28;20432;-92
2023/06/11 10:38:16;;;;;;;4.03;3.05;;;29.60;88.10;;;;;;5044539;28;20060;-95
2023/06/11 10:40:48;;;;;;;6.03;3.88;;;29.80;87.40;;;;;;5064563;28;20044;-96
2023/06/11 10:43:21;;;;;;;6.68;3.50;;;29.80;87.80;;;;;;5042307;28;20045;-87
2023/06/11 10:45:59;;;;;;;4.68;3.35;;;29.90;87.40;;;;;;5071007;28;20048;-91
2023/06/11 10:48:29;;;;;;;4.07;3.67;;;30.00;87.10;;;;;;5053862;28;20075;-91
2023/06/11 10:51:07;;;;;;;5.60;3.55;;;30.00;86.40;;;;;;5050157;28;20048;-93
2023/06/11 10:53:41;;;;;;;7.28;3.13;;;30.00;83.20;;;;;;5036153;28;20048;-90
2023/06/11 10:56:08;;;;;;;4.53;3.28;;;30.00;83.50;;;;;;5032684;28;20079;-93
2023/06/11 10:58:34;;;;;;;5.00;3.30;;;30.00;85.00;;;;;;5051271;28;20044;-92
2023/06/11 11:01:01;;;;;;;8.77;3.40;;;30.10;85.20;;;;;;5038011;28;20132;-92
2023/06/11 11:03:30;;;;;;;5.57;3.83;;;30.20;84.50;;;;;;5047611;28;20054;-90
2023/06/11 11:05:57;;;;;;;3.13;2.83;;;30.40;83.40;;;;;;5066968;28;20565;-91
2023/06/11 11:08:23;;;;;;;6.55;3.47;;;30.50;82.00;;;;;;5049526;28;20040;-89
2023/06/11 11:10:56;;;;;;;4.32;3.22;;;30.50;81.00;;;;;;5031425;28;20131;-85
2023/06/11 11:13:23;;;;;;;5.63;3.25;;;30.60;78.50;;;;;;5064343;28;20049;-88
2023/06/11 11:15:50;;;;;;;5.13;3.30;;;30.60;78.80;;;;;;5063715;28;20048;-89
2023/06/11 11:18:16;;;;;;;4.30;3.35;;;30.60;77.80;;;;;;5067375;28;20076;-92
2023/06/11 11:20:45;;;;;;;4.03;3.10;;;30.70;76.70;;;;;;5036558;28;20052;-93
2023/06/11 11:23:11;;;;;;;4.35;3.08;;;30.70;75.70;;;;;;5052642;28;20040;-89
2023/06/11 11:25:38;;;;;;;6.80;4.10;;;30.80;75.90;;;;;;5067528;28;20040;-87
2023/06/11 11:28:04;;;;;;;5.75;3.50;;;30.80;74.90;;;;;;5051955;28;20066;-90
2023/06/11 11:30:29;;;;;;;3.53;2.80;;;30.80;74.00;;;;;;5035521;28;20044;-90
2023/06/11 11:32:56;;;;;;;3.83;2.95;;;30.80;71.90;;;;;;5050681;28;20040;-90
2023/06/11 11:35:22;;;;;;;4.30;3.05;;;30.90;71.40;;;;;;5035186;28;20048;-91
2023/06/11 11:37:51;;;;;;;3.35;3.03;;;31.00;71.00;;;;;;5049569;28;20102;-89
2023/06/11 11:40:19;;;;;;;3.33;2.65;;;31.10;70.30;;;;;;5068796;28;20040;-89
2023/06/11 11:42:55;;;;;;;3.78;2.88;;;31.00;68.20;;;;;;5066300;28;20040;-90
2023/06/11 11:45:23;;;;;;;3.67;2.75;;;31.00;66.40;;;;;;5036220;28;20125;-90
2023/06/11 11:47:52;;;;;;;5.65;2.78;;;31.00;66.80;;;;;;5068410;28;20053;-93
2023/06/11 11:50:30;;;;;;;3.72;2.60;;;31.10;66.20;;;;;;5050969;28;20041;-91
2023/06/11 11:53:15;;;;;;;3.20;2.70;;;31.20;66.40;;;;;;5036322;28;20033;-93
2023/06/11 11:55:45;;;;;;;3.78;2.90;;;31.40;66.80;;;;;;5034974;28;20135;-94
2023/06/11 11:58:13;;;;;;;6.45;3.15;;;31.50;65.30;;;;;;5040606;28;20048;-92
2023/06/11 12:00:48;;;;;;;5.15;3.03;;;31.50;64.80;;;;;;5052708;28;20186;-88
2023/06/11 12:03:19;;;;;;;3.75;2.83;;;31.60;63.70;;;;;;5072532;28;20048;-95
2023/06/11 12:05:56;;;;;;;5.20;2.67;;;31.60;63.90;;;;;;5063025;28;20041;-93
2023/06/11 12:08:26;;;;;;;3.38;2.55;;;31.80;60.90;;;;;;5058798;28;20123;-96
2023/06/11 12:10:52;;;;;;;3.40;2.90;;;31.90;62.50;;;;;;5079066;28;20025;-95
2023/06/11 12:13:20;;;;;;;5.30;3.25;;;31.90;62.30;;;;;;5061233;28;20094;-94
2023/06/11 12:15:56;;;;;;;4.22;2.80;;;31.80;61.40;;;;;;5085445;28;20045;-95
2023/06/11 12:18:23;;;;;;;15.35;3.75;;;31.00;61.20;;;;;;5058834;28;20505;-95
2023/06/11 12:20:49;;;;;;;3.80;2.90;;;31.60;61.20;;;;;;5055172;28;20052;-95
2023/06/11 12:23:15;;;;;;;3.22;2.67;;;31.60;61.70;;;;;;5050360;28;20051;-91
2023/06/11 12:25:42;;;;;;;4.63;3.35;;;31.60;61.60;;;;;;5069220;28;20601;-88
2023/06/11 12:28:07;;;;;;;3.95;3.10;;;31.60;60.50;;;;;;5050721;28;20509;-89
2023/06/11 12:30:34;;;;;;;3.55;3.17;;;31.60;60.30;;;;;;5033042;28;20045;-95
2023/06/11 12:33:00;;;;;;;4.65;3.10;;;31.60;60.70;;;;;;5052918;28;20100;-91
2023/06/11 12:35:28;;;;;;;4.18;3.13;;;31.60;60.30;;;;;;5034652;28;20064;-93
2023/06/11 12:37:54;;;;;;;4.03;3.15;;;31.70;59.60;;;;;;5037813;28;20041;-93
2023/06/11 12:40:21;;;;;;;6.40;3.90;;;31.80;60.10;;;;;;5037501;28;20597;-94
2023/06/11 12:42:53;;;;;;;6.93;3.10;;;32.80;60.70;;;;;;5054897;28;20044;-94
2023/06/11 12:45:27;;;;;;;2.90;2.70;;;32.10;60.50;;;;;;5055487;28;20048;-95
2023/06/11 12:47:53;;;;;;;6.28;3.22;;;32.30;59.00;;;;;;5056468;28;20071;-95